Time;durP1;ratioP1;P1;durP2;ratioP2;P2;SDS_P1;SDS_P2;PMS_P1;PMS_P2;Temp;Humidity;BMP_temperature;BMP_pressure;BME280_temperature;BME280_humidity;BME280_pressure;Samples;Min_cycle;Max_cycle;Signal;HPM_P1;HPM_P2
2022/11/20 00:00:46;;;;;;;20.73;13.80;;;;;;;;;;5079108;28;20409;-79
2022/11/20 00:03:13;;;;;;;24.45;17.33;;;;;;;;;;5094073;28;20220;-80
2022/11/20 00:05:39;;;;;;;20.35;15.77;;;;;;;;;;5102401;28;20209;-80
2022/11/20 00:08:05;;;;;;;25.73;16.05;;;;;;;;;;5090770;28;20225;-81
2022/11/20 00:10:31;;;;;;;19.35;16.05;;;;;;;;;;5082751;28;20190;-81
2022/11/20 00:13:00;;;;;;;20.75;15.35;;;;;;;;;;5085090;28;20493;-79
2022/11/20 00:15:26;;;;;;;20.58;16.40;;;;;;;;;;5097920;28;20218;-80
2022/11/20 00:17:52;;;;;;;20.40;15.10;;;;;;;;;;5089535;28;20273;-80
2022/11/20 00:20:18;;;;;;;24.13;15.90;;;;;;;;;;5081946;28;20546;-81
2022/11/20 00:22:44;;;;;;;19.95;16.48;;;;;;;;;;5090694;28;20602;-82
2022/11/20 00:25:11;;;;;;;22.70;16.70;;;;;;;;;;5099828;28;20193;-80
2022/11/20 00:27:37;;;;;;;26.60;17.02;;;;;;;;;;5109064;28;20172;-81
2022/11/20 00:30:06;;;;;;;22.95;16.65;;;;;;;;;;5092641;28;20193;-80
2022/11/20 00:32:32;;;;;;;20.38;15.52;;;;;;;;;;5083246;28;20186;-80
2022/11/20 00:34:58;;;;;;;21.83;16.02;;;;;;;;;;5103886;28;20197;-80
2022/11/20 00:37:24;;;;;;;23.40;15.97;;;;;;;;;;5097819;28;20192;-80
2022/11/20 00:39:50;;;;;;;20.20;13.90;;;;;;;;;;5100617;28;20470;-80
2022/11/20 00:42:16;;;;;;;19.80;14.03;;;;;;;;;;5093902;28;20520;-80
2022/11/20 00:44:42;;;;;;;21.80;15.63;;;;;;;;;;5079756;28;20418;-80
2022/11/20 00:47:08;;;;;;;20.88;15.23;;;;;;;;;;5088830;28;20766;-80
2022/11/20 00:49:34;;;;;;;22.55;15.27;;;;;;;;;;5078417;28;20704;-81
2022/11/20 00:52:00;;;;;;;23.17;16.80;;;;;;;;;;5081404;28;20277;-80
2022/11/20 00:54:26;;;;;;;22.50;16.97;;;;;;;;;;5103414;28;20932;-81
2022/11/20 00:56:55;;;;;;;22.13;14.87;;;;;;;;;;5099491;28;20432;-80
2022/11/20 00:59:21;;;;;;;26.10;15.90;;;;;;;;;;5095338;28;20435;-80
2022/11/20 01:01:47;;;;;;;22.00;15.53;;;;;;;;;;5098831;28;20329;-80
2022/11/20 01:04:13;;;;;;;20.13;14.38;;;;;;;;;;5074087;28;20494;-81
2022/11/20 01:06:39;;;;;;;23.15;16.70;;;;;;;;;;5108761;28;20177;-80
2022/11/20 01:09:11;;;;;;;21.40;15.57;;;;;;;;;;5092916;28;20565;-80
2022/11/20 01:11:38;;;;;;;21.73;16.05;;;;;;;;;;5101592;28;20647;-81
2022/11/20 01:14:06;;;;;;;24.83;16.50;;;;;;;;;;5102756;28;20558;-80
2022/11/20 01:16:37;;;;;;;19.80;13.80;;;;;;;;;;5096438;28;20186;-80
2022/11/20 01:19:04;;;;;;;21.95;16.10;;;;;;;;;;5078940;28;20260;-80
2022/11/20 01:21:32;;;;;;;27.80;16.30;;;;;;;;;;5086428;28;20273;-80
2022/11/20 01:23:58;;;;;;;24.38;16.60;;;;;;;;;;5102919;28;20197;-80
2022/11/20 01:26:26;;;;;;;23.60;15.48;;;;;;;;;;5089586;28;20189;-79
2022/11/20 01:28:52;;;;;;;18.52;14.57;;;;;;;;;;5101582;28;20254;-80
2022/11/20 01:31:29;;;;;;;20.42;15.00;;;;;;;;;;5095122;28;20193;-81
2022/11/20 01:33:57;;;;;;;21.10;15.27;;;;;;;;;;5108832;28;20225;-80
2022/11/20 01:36:23;;;;;;;22.67;16.30;;;;;;;;;;5095377;28;20652;-80
2022/11/20 01:38:53;;;;;;;22.35;16.15;;;;;;;;;;5106040;28;20189;-81
2022/11/20 01:44:04;;;;;;;20.27;14.63;;;;;;;;;;5093821;28;20749;-81
2022/11/20 01:46:31;;;;;;;17.80;13.68;;;;;;;;;;5089798;28;20204;-81
2022/11/20 01:49:00;;;;;;;18.77;14.77;;;;;;;;;;5105645;28;20742;-79
2022/11/20 01:51:30;;;;;;;24.00;15.90;;;;;;;;;;5082969;28;20436;-79
2022/11/20 01:53:57;;;;;;;19.48;15.45;;;;;;;;;;5098177;28;20236;-80
2022/11/20 01:56:24;;;;;;;19.98;14.73;;;;;;;;;;5099012;28;20551;-80
2022/11/20 01:58:52;;;;;;;25.00;16.58;;;;;;;;;;5096431;28;20242;-80
2022/11/20 02:01:18;;;;;;;20.27;16.30;;;;;;;;;;5089063;28;20178;-80
2022/11/20 02:03:45;;;;;;;17.70;13.57;;;;;;;;;;5098675;28;20228;-81
2022/11/20 02:06:15;;;;;;;19.40;14.48;;;;;;;;;;5102091;28;20186;-81
2022/11/20 02:08:41;;;;;;;23.08;16.30;;;;;;;;;;5067091;28;20236;-79
2022/11/20 02:11:07;;;;;;;18.63;15.30;;;;;;;;;;5093583;28;20201;-79
2022/11/20 02:13:43;;;;;;;19.08;14.35;;;;;;;;;;5101334;28;20443;-80
2022/11/20 02:16:11;;;;;;;25.38;17.60;;;;;;;;;;5088599;28;20174;-80
2022/11/20 02:18:37;;;;;;;20.05;15.32;;;;;;;;;;5098113;28;20277;-81
2022/11/20 02:21:15;;;;;;;22.92;15.50;;;;;;;;;;5088650;28;20228;-81
2022/11/20 02:23:54;;;;;;;19.45;14.48;;;;;;;;;;5094161;28;20726;-81
2022/11/20 02:26:20;;;;;;;23.45;15.68;;;;;;;;;;5107623;28;20259;-81
2022/11/20 02:28:46;;;;;;;24.00;14.50;;;;;;;;;;5093033;28;20196;-81
2022/11/20 02:31:12;;;;;;;19.57;14.70;;;;;;;;;;5088691;28;20883;-81
2022/11/20 02:33:38;;;;;;;22.93;16.60;;;;;;;;;;5096750;28;20545;-81
2022/11/20 02:36:04;;;;;;;20.40;16.00;;;;;;;;;;5108187;28;20430;-80
2022/11/20 02:38:30;;;;;;;23.17;15.75;;;;;;;;;;5091297;28;20481;-80
2022/11/20 02:40:56;;;;;;;18.60;13.67;;;;;;;;;;5108432;28;20639;-79
2022/11/20 02:43:23;;;;;;;20.05;14.75;;;;;;;;;;5086196;28;21065;-80
2022/11/20 02:45:49;;;;;;;19.95;14.55;;;;;;;;;;5107420;28;20184;-81
2022/11/20 02:48:15;;;;;;;20.88;15.27;;;;;;;;;;5086757;28;20265;-80
2022/11/20 02:50:41;;;;;;;21.08;14.98;;;;;;;;;;5090681;28;20173;-80
2022/11/20 02:53:07;;;;;;;21.02;15.88;;;;;;;;;;5113072;28;20197;-80
2022/11/20 02:55:33;;;;;;;21.77;15.98;;;;;;;;;;5106464;28;20173;-80
2022/11/20 02:57:59;;;;;;;19.55;16.23;;;;;;;;;;5093951;28;20876;-80
2022/11/20 03:00:25;;;;;;;21.70;16.30;;;;;;;;;;5081770;28;20194;-80
2022/11/20 03:02:51;;;;;;;19.65;16.02;;;;;;;;;;5089323;28;20486;-80
2022/11/20 03:05:17;;;;;;;18.70;15.20;;;;;;;;;;5082797;28;20281;-80
2022/11/20 03:07:44;;;;;;;16.97;13.80;;;;;;;;;;5094591;28;21212;-79
2022/11/20 03:10:10;;;;;;;19.30;14.77;;;;;;;;;;5072838;28;20449;-79
2022/11/20 03:12:36;;;;;;;17.03;13.50;;;;;;;;;;5080794;28;20186;-80
2022/11/20 03:15:02;;;;;;;17.53;13.97;;;;;;;;;;5103314;28;20454;-80
2022/11/20 03:17:29;;;;;;;23.92;18.10;;;;;;;;;;5087561;28;20428;-81
2022/11/20 03:19:55;;;;;;;21.57;14.70;;;;;;;;;;5091699;28;20222;-81
2022/11/20 03:22:21;;;;;;;19.40;14.93;;;;;;;;;;5091683;28;20914;-80
2022/11/20 03:24:47;;;;;;;21.08;16.27;;;;;;;;;;5085181;28;20524;-80
2022/11/20 03:27:13;;;;;;;21.52;15.57;;;;;;;;;;5106198;28;20184;-81
2022/11/20 03:29:39;;;;;;;18.80;15.07;;;;;;;;;;5098983;27;20201;-80
2022/11/20 03:32:05;;;;;;;17.03;13.57;;;;;;;;;;5103867;28;20197;-80
2022/11/20 03:34:31;;;;;;;25.38;16.65;;;;;;;;;;5072494;28;20447;-80
2022/11/20 03:36:57;;;;;;;18.90;14.80;;;;;;;;;;5095224;28;20178;-79
2022/11/20 03:39:23;;;;;;;22.15;15.65;;;;;;;;;;5102205;28;20431;-79
2022/11/20 03:41:49;;;;;;;21.08;15.63;;;;;;;;;;5081804;28;20194;-79
2022/11/20 03:44:15;;;;;;;19.77;14.80;;;;;;;;;;5100600;28;20659;-81
2022/11/20 03:46:41;;;;;;;15.88;13.07;;;;;;;;;;5097854;28;20431;-81
2022/11/20 03:49:07;;;;;;;23.27;15.87;;;;;;;;;;5083412;28;20611;-80
2022/11/20 03:51:35;;;;;;;20.30;15.75;;;;;;;;;;5093934;28;20812;-81
2022/11/20 03:54:02;;;;;;;23.77;16.63;;;;;;;;;;5091534;28;20296;-80
2022/11/20 03:56:29;;;;;;;17.52;14.88;;;;;;;;;;5084533;28;20185;-81
2022/11/20 03:58:56;;;;;;;20.48;16.25;;;;;;;;;;5092844;28;20234;-80
2022/11/20 04:01:23;;;;;;;21.02;16.02;;;;;;;;;;5091883;28;20174;-81
2022/11/20 04:03:49;;;;;;;18.13;15.20;;;;;;;;;;5094490;28;20217;-81
2022/11/20 04:06:20;;;;;;;20.45;13.40;;;;;;;;;;5105988;28;20177;-80
2022/11/20 04:08:46;;;;;;;21.70;16.35;;;;;;;;;;5091641;28;20658;-82
2022/11/20 04:11:16;;;;;;;22.88;16.20;;;;;;;;;;5083044;28;20595;-81
2022/11/20 04:13:42;;;;;;;18.02;14.57;;;;;;;;;;5089126;28;20190;-80
2022/11/20 04:16:10;;;;;;;23.73;14.73;;;;;;;;;;5095982;28;20185;-80
2022/11/20 04:18:36;;;;;;;20.63;15.32;;;;;;;;;;5077336;28;20282;-80
2022/11/20 04:21:02;;;;;;;20.30;15.95;;;;;;;;;;5070693;28;20274;-80
2022/11/20 04:23:28;;;;;;;24.65;16.67;;;;;;;;;;5075889;28;20210;-79
2022/11/20 04:25:54;;;;;;;22.27;16.63;;;;;;;;;;5073780;28;20200;-80
2022/11/20 04:28:20;;;;;;;19.50;14.65;;;;;;;;;;5080131;28;20448;-79
2022/11/20 04:31:05;;;;;;;;;;;;;;;;;;;;;
2022/11/20 04:33:31;;;;;;;20.05;15.23;;;;;;;;;;5070784;28;20425;-79
2022/11/20 04:36:00;;;;;;;18.95;15.10;;;;;;;;;;5073923;28;20197;-79
2022/11/20 04:38:26;;;;;;;19.33;15.27;;;;;;;;;;5078331;28;20198;-79
2022/11/20 04:40:56;;;;;;;18.60;14.90;;;;;;;;;;5082977;28;20183;-79
2022/11/20 04:43:25;;;;;;;20.38;15.43;;;;;;;;;;5078062;28;20498;-79
2022/11/20 04:45:51;;;;;;;22.98;16.92;;;;;;;;;;5092976;28;20298;-79
2022/11/20 04:48:17;;;;;;;19.13;14.73;;;;;;;;;;5080960;28;20204;-79
2022/11/20 04:50:43;;;;;;;23.33;15.73;;;;;;;;;;5074771;28;20187;-80
2022/11/20 04:53:09;;;;;;;20.80;13.52;;;;;;;;;;5094689;28;20436;-80
2022/11/20 04:55:35;;;;;;;18.07;13.80;;;;;;;;;;5088123;28;20239;-79
2022/11/20 04:58:01;;;;;;;20.67;14.43;;;;;;;;;;5092144;28;20441;-79
2022/11/20 05:00:28;;;;;;;20.90;15.43;;;;;;;;;;5086547;28;20178;-79
2022/11/20 05:02:54;;;;;;;21.73;15.85;;;;;;;;;;5082354;28;20218;-79
2022/11/20 05:05:23;;;;;;;23.52;13.88;;;;;;;;;;5086648;28;20193;-79
2022/11/20 05:07:49;;;;;;;19.25;14.55;;;;;;;;;;5088482;28;20198;-78
2022/11/20 05:10:15;;;;;;;17.97;13.90;;;;;;;;;;5095548;28;20197;-79
2022/11/20 05:12:44;;;;;;;18.35;14.50;;;;;;;;;;5087892;28;20431;-79
2022/11/20 05:15:10;;;;;;;19.60;14.70;;;;;;;;;;5094802;28;20192;-79
2022/11/20 05:17:36;;;;;;;20.60;13.90;;;;;;;;;;5099113;28;20197;-79
2022/11/20 05:20:02;;;;;;;22.17;15.67;;;;;;;;;;5084774;28;20219;-79
2022/11/20 05:22:30;;;;;;;17.10;13.93;;;;;;;;;;5103817;28;20539;-80
2022/11/20 05:24:56;;;;;;;16.65;13.50;;;;;;;;;;5076351;28;20432;-80
2022/11/20 05:27:22;;;;;;;16.77;14.30;;;;;;;;;;5093315;28;20275;-79
2022/11/20 05:29:48;;;;;;;24.00;16.83;;;;;;;;;;5069705;28;20692;-80
2022/11/20 05:32:14;;;;;;;19.67;14.67;;;;;;;;;;5090739;28;20941;-78
2022/11/20 05:34:40;;;;;;;18.73;15.20;;;;;;;;;;5071816;28;20475;-79
2022/11/20 05:37:06;;;;;;;19.33;14.17;;;;;;;;;;5084904;28;20843;-79
2022/11/20 05:39:32;;;;;;;18.10;15.10;;;;;;;;;;5074653;28;20457;-78
2022/11/20 05:44:43;;;;;;;17.20;13.40;;;;;;;;;;5102775;28;20205;-77
2022/11/20 05:47:09;;;;;;;20.70;14.13;;;;;;;;;;5107883;28;20636;-78
2022/11/20 05:49:35;;;;;;;18.40;15.17;;;;;;;;;;5072701;28;20452;-78
2022/11/20 05:52:01;;;;;;;21.17;15.40;;;;;;;;;;5080022;28;21003;-78
2022/11/20 05:54:27;;;;;;;18.20;14.10;;;;;;;;;;5073006;28;20437;-79
2022/11/20 05:56:53;;;;;;;17.10;14.20;;;;;;;;;;5101556;28;20435;-79
2022/11/20 05:59:19;;;;;;;18.88;14.45;;;;;;;;;;5092136;28;20482;-78
2022/11/20 06:01:45;;;;;;;17.83;14.13;;;;;;;;;;5095539;28;20725;-79
2022/11/20 06:04:11;;;;;;;18.83;14.30;;;;;;;;;;5072048;28;20506;-79
2022/11/20 06:06:37;;;;;;;20.17;15.32;;;;;;;;;;5090582;28;20436;-80
2022/11/20 06:09:03;;;;;;;14.53;12.63;;;;;;;;;;5099405;28;20193;-79
2022/11/20 06:11:29;;;;;;;20.75;14.75;;;;;;;;;;5080350;28;20453;-81
2022/11/20 06:13:55;;;;;;;17.10;13.53;;;;;;;;;;5096677;28;20193;-80
2022/11/20 06:16:21;;;;;;;17.73;14.30;;;;;;;;;;5077096;28;21094;-79
2022/11/20 06:18:47;;;;;;;23.40;16.45;;;;;;;;;;5075189;28;20548;-79
2022/11/20 06:21:18;;;;;;;21.73;14.70;;;;;;;;;;5093008;28;20186;-79
2022/11/20 06:23:44;;;;;;;18.90;14.88;;;;;;;;;;5103095;28;20819;-79
2022/11/20 06:26:11;;;;;;;19.50;14.43;;;;;;;;;;5080927;27;20227;-78
2022/11/20 06:28:37;;;;;;;19.50;14.55;;;;;;;;;;5087937;28;20194;-79
2022/11/20 06:31:03;;;;;;;22.30;16.17;;;;;;;;;;5067521;28;20171;-79
2022/11/20 06:33:33;;;;;;;21.45;15.60;;;;;;;;;;5085177;28;20474;-79
2022/11/20 06:36:00;;;;;;;21.55;15.52;;;;;;;;;;5087027;28;20879;-79
2022/11/20 06:38:26;;;;;;;20.27;16.13;;;;;;;;;;5094410;28;20193;-79
2022/11/20 06:40:52;;;;;;;20.13;16.00;;;;;;;;;;5082851;28;20577;-79
2022/11/20 06:43:18;;;;;;;22.70;14.77;;;;;;;;;;5097969;28;20210;-79
2022/11/20 06:45:44;;;;;;;17.52;13.43;;;;;;;;;;5074378;28;20424;-79
2022/11/20 06:48:10;;;;;;;20.20;15.30;;;;;;;;;;5093388;28;20720;-79
2022/11/20 06:50:39;;;;;;;20.50;15.70;;;;;;;;;;5067057;28;20405;-79
2022/11/20 06:53:05;;;;;;;23.08;15.57;;;;;;;;;;5090099;28;20528;-79
2022/11/20 06:55:32;;;;;;;23.77;16.15;;;;;;;;;;5066822;28;20172;-80
2022/11/20 06:57:58;;;;;;;26.88;16.92;;;;;;;;;;5097059;28;20276;-80
2022/11/20 07:00:24;;;;;;;19.10;14.75;;;;;;;;;;5086934;28;20178;-80
2022/11/20 07:02:50;;;;;;;17.73;13.40;;;;;;;;;;5084434;28;20226;-81
2022/11/20 07:05:16;;;;;;;22.77;13.20;;;;;;;;;;5076419;28;20945;-81
2022/11/20 07:07:42;;;;;;;15.18;13.48;;;;;;;;;;5077920;28;20453;-81
2022/11/20 07:10:09;;;;;;;22.05;14.82;;;;;;;;;;5088815;28;20594;-81
2022/11/20 07:12:35;;;;;;;20.30;14.85;;;;;;;;;;5095524;28;20186;-81
2022/11/20 07:15:01;;;;;;;18.73;14.57;;;;;;;;;;4727916;28;10000019;-80
2022/11/20 07:17:27;;;;;;;23.77;16.45;;;;;;;;;;5075859;28;20436;-80
2022/11/20 07:19:53;;;;;;;20.25;15.70;;;;;;;;;;5071577;28;20709;-80
2022/11/20 07:22:21;;;;;;;19.38;14.07;;;;;;;;;;5067594;28;20917;-80
2022/11/20 07:24:47;;;;;;;18.35;15.30;;;;;;;;;;5082559;28;20686;-81
2022/11/20 07:27:13;;;;;;;19.70;12.77;;;;;;;;;;5079429;28;20855;-80
2022/11/20 07:29:39;;;;;;;18.40;14.57;;;;;;;;;;5070829;28;20295;-80
2022/11/20 07:32:05;;;;;;;22.40;16.08;;;;;;;;;;5064810;28;20479;-81
2022/11/20 07:34:31;;;;;;;16.95;13.90;;;;;;;;;;5096365;28;20190;-81
2022/11/20 07:36:57;;;;;;;18.13;13.57;;;;;;;;;;5076460;28;20174;-80
2022/11/20 07:39:23;;;;;;;16.10;14.40;;;;;;;;;;5079142;28;20197;-80
2022/11/20 07:41:49;;;;;;;20.30;14.70;;;;;;;;;;5070494;28;20493;-80
2022/11/20 07:44:15;;;;;;;21.37;16.23;;;;;;;;;;5083827;28;20513;-80
2022/11/20 07:46:41;;;;;;;20.10;14.50;;;;;;;;;;5080056;28;20423;-81
2022/11/20 07:49:07;;;;;;;17.40;13.83;;;;;;;;;;5078016;28;20481;-81
2022/11/20 07:51:33;;;;;;;23.23;15.80;;;;;;;;;;5084684;28;20437;-80
2022/11/20 07:53:59;;;;;;;19.60;14.53;;;;;;;;;;5075922;28;20202;-81
2022/11/20 07:56:25;;;;;;;22.97;16.87;;;;;;;;;;5086276;28;20439;-80
2022/11/20 07:58:51;;;;;;;24.42;15.77;;;;;;;;;;5075765;28;20439;-80
2022/11/20 08:01:17;;;;;;;20.97;15.80;;;;;;;;;;5071566;28;20186;-81
2022/11/20 08:03:46;;;;;;;20.25;15.13;;;;;;;;;;5085299;28;20476;-87
2022/11/20 08:06:14;;;;;;;19.50;15.27;;;;;;;;;;5083564;28;20217;-87
2022/11/20 08:08:44;;;;;;;25.42;16.63;;;;;;;;;;5077361;28;20765;-86
2022/11/20 08:14:12;;;;;;;26.92;18.17;;;;;;;;;;5085390;28;20239;-80
2022/11/20 08:16:39;;;;;;;27.48;16.40;;;;;;;;;;5068851;28;20191;-81
2022/11/20 08:19:05;;;;;;;27.10;19.02;;;;;;;;;;5074616;28;20187;-81
2022/11/20 08:21:31;;;;;;;25.90;17.13;;;;;;;;;;5077735;28;20208;-81
2022/11/20 08:23:58;;;;;;;25.92;17.42;;;;;;;;;;5085992;28;20705;-80
2022/11/20 08:26:24;;;;;;;20.00;15.15;;;;;;;;;;5078830;28;20682;-82
2022/11/20 08:28:54;;;;;;;20.77;14.65;;;;;;;;;;5089210;28;20208;-81
2022/11/20 08:31:20;;;;;;;19.60;14.63;;;;;;;;;;5080927;28;20235;-81
2022/11/20 08:33:46;;;;;;;20.43;15.70;;;;;;;;;;5081597;28;20603;-82
2022/11/20 08:36:12;;;;;;;23.73;17.90;;;;;;;;;;5085077;28;20439;-81
2022/11/20 08:38:38;;;;;;;22.90;17.38;;;;;;;;;;5069137;28;20191;-79
2022/11/20 08:41:23;;;;;;;22.33;16.35;;;;;;;;;;5080754;28;20206;-81
2022/11/20 08:43:53;;;;;;;19.88;14.90;;;;;;;;;;5071973;28;20232;-81
2022/11/20 08:46:19;;;;;;;16.95;14.32;;;;;;;;;;5094113;28;20189;-81
2022/11/20 08:48:45;;;;;;;21.15;16.45;;;;;;;;;;5074527;28;20205;-82
2022/11/20 08:51:12;;;;;;;24.08;16.20;;;;;;;;;;5090850;28;20694;-81
2022/11/20 08:53:38;;;;;;;18.80;14.35;;;;;;;;;;5078259;22;20235;-89
2022/11/20 08:56:05;;;;;;;19.83;14.15;;;;;;;;;;5041250;28;20218;-81
2022/11/20 08:58:31;;;;;;;21.83;16.58;;;;;;;;;;5031954;28;20195;-80
2022/11/20 09:00:57;;;;;;;21.00;16.08;;;;;;;;;;5029349;28;20183;-81
2022/11/20 09:03:23;;;;;;;22.05;15.13;;;;;;;;;;5030979;28;20231;-81
2022/11/20 09:05:49;;;;;;;22.75;16.60;;;;;;;;;;5021351;28;20342;-80
2022/11/20 09:08:15;;;;;;;19.90;16.40;;;;;;;;;;4675876;28;10000530;-80
2022/11/20 09:10:41;;;;;;;24.20;16.77;;;;;;;;;;5021249;28;20438;-81
2022/11/20 09:13:07;;;;;;;24.77;16.27;;;;;;;;;;5025600;28;20817;-80
2022/11/20 09:15:33;;;;;;;21.88;15.82;;;;;;;;;;5028752;28;20252;-80
2022/11/20 09:18:01;;;;;;;19.40;16.52;;;;;;;;;;5033086;28;20610;-80
2022/11/20 09:20:28;;;;;;;26.75;20.95;;;;;;;;;;5037876;28;20255;-80
2022/11/20 09:22:54;;;;;;;18.70;16.40;;;;;;;;;;5030751;28;20571;-80
2022/11/20 09:25:20;;;;;;;21.25;15.90;;;;;;;;;;5040643;28;20171;-79
2022/11/20 09:27:46;;;;;;;23.50;16.77;;;;;;;;;;5032678;28;20187;-80
2022/11/20 09:30:13;;;;;;;20.85;16.48;;;;;;;;;;5028360;28;20877;-82
2022/11/20 09:32:42;;;;;;;24.85;17.40;;;;;;;;;;5033669;28;20218;-81
2022/11/20 09:35:09;;;;;;;20.67;15.67;;;;;;;;;;5028534;28;20278;-81
2022/11/20 09:37:35;;;;;;;17.92;13.10;;;;;;;;;;5029703;28;20439;-83
2022/11/20 09:40:01;;;;;;;19.10;15.10;;;;;;;;;;5028413;28;20206;-89
2022/11/20 09:42:40;;;;;;;23.60;15.77;;;;;;;;;;5034665;28;20220;-86
2022/11/20 09:45:15;;;;;;;17.75;13.43;;;;;;;;;;5028791;28;20192;-82
2022/11/20 09:47:50;;;;;;;19.07;14.20;;;;;;;;;;5033408;28;20179;-83
2022/11/20 09:50:25;;;;;;;16.58;14.40;;;;;;;;;;5024630;28;20469;-85
2022/11/20 09:55:57;;;;;;;17.23;14.07;;;;;;;;;;5024126;28;20294;-80
2022/11/20 09:58:29;;;;;;;14.82;12.65;;;;;;;;;;5028300;28;20188;-82
2022/11/20 10:01:02;;;;;;;14.90;12.40;;;;;;;;;;5030270;28;20510;-83
2022/11/20 10:03:41;;;;;;;14.27;11.90;;;;;;;;;;5024360;28;20466;-81
2022/11/20 10:06:11;;;;;;;11.07;9.65;;;;;;;;;;5027406;28;20187;-81
2022/11/20 10:08:37;;;;;;;12.95;10.73;;;;;;;;;;5036624;28;20175;-81
2022/11/20 10:11:25;;;;;;;13.67;10.00;;;;;;;;;;5014508;28;20249;-81
2022/11/20 10:13:59;;;;;;;12.23;10.43;;;;;;;;;;5028751;28;20431;-81
2022/11/20 10:16:34;;;;;;;58.28;14.05;;;;;;;;;;5033766;28;20523;-82
2022/11/20 10:19:00;;;;;;;9.98;7.55;;;;;;;;;;5029694;28;20285;-80
2022/11/20 10:21:45;;;;;;;11.20;9.85;;;;;;;;;;5023838;28;20532;-80
2022/11/20 10:24:20;;;;;;;9.32;8.40;;;;;;;;;;5026677;28;20211;-81
2022/11/20 10:26:55;;;;;;;10.33;9.23;;;;;;;;;;5040526;28;20277;-83
2022/11/20 10:29:53;;;;;;;11.60;10.00;;;;;;;;;;5029707;28;20414;-84
2022/11/20 10:32:20;;;;;;;11.63;10.43;;;;;;;;;;5027768;28;20828;-83
2022/11/20 10:34:52;;;;;;;12.38;11.07;;;;;;;;;;5029839;28;20457;-80
2022/11/20 10:37:29;;;;;;;12.27;9.90;;;;;;;;;;5038633;28;20190;-80
2022/11/20 10:40:01;;;;;;;15.68;10.35;;;;;;;;;;4695503;28;10000674;-80
2022/11/20 10:42:45;;;;;;;12.70;9.30;;;;;;;;;;5039000;28;20219;-82
2022/11/20 10:45:27;;;;;;;16.17;11.57;;;;;;;;;;5033750;28;20263;-81
2022/11/20 10:47:55;;;;;;;14.70;9.98;;;;;;;;;;5031867;28;20175;-80
2022/11/20 10:50:22;;;;;;;11.50;10.40;;;;;;;;;;5034049;28;20198;-81
2022/11/20 10:52:48;;;;;;;12.40;10.80;;;;;;;;;;5026430;28;20919;-80
2022/11/20 10:55:30;;;;;;;14.30;10.93;;;;;;;;;;5029853;28;20874;-80
2022/11/20 10:58:10;;;;;;;10.80;9.77;;;;;;;;;;5024867;28;20434;-80
2022/11/20 11:03:24;;;;;;;12.32;10.75;;;;;;;;;;5050283;23;20497;-81
2022/11/20 11:06:38;;;;;;;14.50;11.67;;;;;;;;;;4949554;28;20703;-82
2022/11/20 11:09:12;;;;;;;11.83;10.63;;;;;;;;;;4929691;28;20598;-82
2022/11/20 11:11:38;;;;;;;11.25;10.15;;;;;;;;;;4940134;28;20524;-80
2022/11/20 11:14:15;;;;;;;11.13;9.65;;;;;;;;;;4960953;28;20257;-82
2022/11/20 11:16:57;;;;;;;14.50;11.07;;;;;;;;;;4943030;28;20301;-81
2022/11/20 11:19:24;;;;;;;12.57;9.15;;;;;;;;;;4949101;28;20430;-82
2022/11/20 11:21:57;;;;;;;11.73;9.80;;;;;;;;;;4945257;28;20199;-82
2022/11/20 11:24:25;;;;;;;10.77;9.63;;;;;;;;;;4951080;29;20305;-82
2022/11/20 11:26:54;;;;;;;13.50;9.68;;;;;;;;;;4950173;28;20187;-80
2022/11/20 11:29:20;;;;;;;11.80;9.85;;;;;;;;;;4946683;28;20244;-79
2022/11/20 11:31:46;;;;;;;16.90;11.20;;;;;;;;;;4932694;28;20200;-81
2022/11/20 11:37:22;;;;;;;15.43;10.10;;;;;;;;;;4944282;28;20232;-77
2022/11/20 11:39:48;;;;;;;13.20;11.20;;;;;;;;;;4946584;28;20194;-79
2022/11/20 11:42:17;;;;;;;12.27;10.20;;;;;;;;;;4935725;28;20223;-80
2022/11/20 11:45:05;;;;;;;15.17;11.83;;;;;;;;;;4937503;28;20941;-79
2022/11/20 11:47:32;;;;;;;14.30;10.80;;;;;;;;;;4950458;28;20437;-80
2022/11/20 11:50:18;;;;;;;13.23;10.00;;;;;;;;;;4946153;28;21200;-79
2022/11/20 11:52:44;;;;;;;12.30;9.80;;;;;;;;;;4937924;28;20218;-81
2022/11/20 11:55:13;;;;;;;13.27;11.30;;;;;;;;;;4941673;28;20481;-80
2022/11/20 11:57:52;;;;;;;13.45;11.50;;;;;;;;;;4941050;29;20438;-80
2022/11/20 12:00:22;;;;;;;14.50;11.27;;;;;;;;;;4953853;28;20221;-80
2022/11/20 12:09:39;;;;;;;;;;;;;;;;;;;;;
2022/11/20 12:14:50;;;;;;;18.70;13.15;;;;;;;;;;5056187;23;20503;-78
2022/11/20 12:17:19;;;;;;;17.67;12.27;;;;;;;;;;4956994;28;20202;-81
2022/11/20 12:19:56;;;;;;;18.83;14.05;;;;;;;;;;4953501;28;20458;-79
2022/11/20 12:23:03;;;;;;;15.70;11.50;;;;;;;;;;4954479;28;20229;-79
2022/11/20 12:25:53;;;;;;;16.30;12.50;;;;;;;;;;4935153;28;20453;-80
2022/11/20 12:28:37;;;;;;;17.38;11.05;;;;;;;;;;4939360;28;20220;-81
2022/11/20 12:31:24;;;;;;;19.93;14.20;;;;;;;;;;4962149;28;20267;-80
2022/11/20 12:46:36;;;;;;;18.40;13.30;;;;;;;;;;4944908;28;20213;-80
2022/11/20 12:49:11;;;;;;;20.20;13.00;;;;;;;;;;4970753;28;20784;-79
2022/11/20 12:51:40;;;;;;;21.45;14.15;;;;;;;;;;4948469;28;20962;-79
2022/11/20 12:54:09;;;;;;;20.65;14.75;;;;;;;;;;4949355;28;20191;-79
2022/11/20 12:56:48;;;;;;;18.75;12.77;;;;;;;;;;4951325;28;20209;-80
2022/11/20 12:59:14;;;;;;;14.27;11.97;;;;;;;;;;4968554;28;20240;-79
2022/11/20 13:01:52;;;;;;;17.23;13.75;;;;;;;;;;4941809;28;20477;-81
2022/11/20 13:04:22;;;;;;;18.57;13.13;;;;;;;;;;4949636;28;20317;-82
2022/11/20 13:06:58;;;;;;;18.17;13.77;;;;;;;;;;4965501;28;20541;-86
2022/11/20 13:09:24;;;;;;;18.75;14.23;;;;;;;;;;4955253;28;20600;-79
2022/11/20 13:12:11;;;;;;;20.70;14.40;;;;;;;;;;4928372;29;20238;-80
2022/11/20 13:14:41;;;;;;;19.52;12.95;;;;;;;;;;4919997;29;20957;-79
2022/11/20 13:17:39;;;;;;;23.10;13.73;;;;;;;;;;4928356;29;20215;-78
2022/11/20 13:20:06;;;;;;;23.45;13.88;;;;;;;;;;4917334;29;20219;-77
2022/11/20 13:22:46;;;;;;;21.47;14.53;;;;;;;;;;4927580;29;20213;-79
2022/11/20 13:25:41;;;;;;;23.37;15.23;;;;;;;;;;4926532;29;20435;-78
2022/11/20 13:28:10;;;;;;;23.47;15.07;;;;;;;;;;4912958;29;21173;-79
2022/11/20 13:30:43;;;;;;;24.38;15.90;;;;;;;;;;4938479;28;20483;-79
2022/11/20 13:33:24;;;;;;;19.23;14.18;;;;;;;;;;4939055;28;20187;-82
2022/11/20 13:36:10;;;;;;;21.58;15.32;;;;;;;;;;4926033;29;20219;-78
2022/11/20 13:38:50;;;;;;;27.70;17.20;;;;;;;;;;4918020;29;20195;-81
2022/11/20 13:41:31;;;;;;;21.88;16.02;;;;;;;;;;4923335;29;20721;-80
2022/11/20 13:44:09;;;;;;;22.67;16.20;;;;;;;;;;4940132;28;20215;-80
2022/11/20 13:46:36;;;;;;;20.63;15.30;;;;;;;;;;4925944;29;20449;-79
2022/11/20 13:49:08;;;;;;;25.13;16.85;;;;;;;;;;4928674;29;20482;-79
2022/11/20 13:51:44;;;;;;;28.05;18.00;;;;;;;;;;4917265;29;20282;-78
2022/11/20 13:54:36;;;;;;;24.00;14.95;;;;;;;;;;4929335;29;20551;-79
2022/11/20 13:57:11;;;;;;;21.05;15.63;;;;;;;;;;4904226;29;20884;-80
2022/11/20 13:59:46;;;;;;;22.15;16.02;;;;;;;;;;4927475;29;20666;-79
2022/11/20 14:02:20;;;;;;;22.00;14.93;;;;;;;;;;4919287;29;20219;-79
2022/11/20 14:04:50;;;;;;;22.40;15.10;;;;;;;;;;4930809;29;20303;-80
2022/11/20 14:07:18;;;;;;;25.58;16.98;;;;;;;;;;4935285;28;20255;-79
2022/11/20 14:09:52;;;;;;;22.20;15.90;;;;;;;;;;4925898;29;20211;-79
2022/11/20 14:12:19;;;;;;;24.40;15.63;;;;;;;;;;4922923;29;20502;-77
2022/11/20 14:14:54;;;;;;;24.85;17.20;;;;;;;;;;4921422;29;20427;-78
2022/11/20 14:17:29;;;;;;;22.97;15.40;;;;;;;;;;4941560;28;20693;-78
2022/11/20 14:19:56;;;;;;;26.35;16.52;;;;;;;;;;4930781;29;20465;-79
2022/11/20 14:22:23;;;;;;;21.75;16.15;;;;;;;;;;4924413;29;20234;-78
2022/11/20 14:25:01;;;;;;;23.13;15.32;;;;;;;;;;4925824;29;20187;-79
2022/11/20 14:27:26;;;;;;;20.98;15.18;;;;;;;;;;4917381;29;20217;-78
2022/11/20 14:29:53;;;;;;;23.27;15.67;;;;;;;;;;4930056;29;20218;-78
2022/11/20 14:32:25;;;;;;;24.43;16.90;;;;;;;;;;4923796;29;21006;-78
2022/11/20 14:34:51;;;;;;;20.10;14.50;;;;;;;;;;4944497;28;20427;-78
2022/11/20 14:37:28;;;;;;;25.58;14.80;;;;;;;;;;4925515;29;20614;-80
2022/11/20 14:39:55;;;;;;;24.77;16.30;;;;;;;;;;4928243;29;20569;-80
2022/11/20 14:42:25;;;;;;;26.00;17.13;;;;;;;;;;4939160;28;20459;-78
2022/11/20 14:44:51;;;;;;;27.85;17.40;;;;;;;;;;4944082;28;20447;-79
2022/11/20 14:47:25;;;;;;;30.53;20.50;;;;;;;;;;4923559;29;20211;-79
2022/11/20 14:49:55;;;;;;;30.70;19.80;;;;;;;;;;4930721;29;20443;-85
2022/11/20 14:53:00;;;;;;;27.80;18.95;;;;;;;;;;4927544;29;21065;-83
2022/11/20 14:55:28;;;;;;;29.10;17.25;;;;;;;;;;4920828;29;20187;-79
2022/11/20 14:57:58;;;;;;;30.13;17.20;;;;;;;;;;4921985;29;20210;-78
2022/11/20 15:00:24;;;;;;;30.97;17.60;;;;;;;;;;4943955;28;20202;-80
2022/11/20 15:02:51;;;;;;;29.67;17.80;;;;;;;;;;4920902;29;20570;-77
2022/11/20 15:05:18;;;;;;;26.23;17.80;;;;;;;;;;4922366;29;20198;-79
2022/11/20 15:07:49;;;;;;;27.42;18.90;;;;;;;;;;4938180;28;20207;-78
2022/11/20 15:10:25;;;;;;;28.92;18.85;;;;;;;;;;4928263;29;20540;-78